sensor_id;sensor_type;location;lat;lon;timestamp;pressure;altitude;pressure_sealevel;temperature;humidity
81468;BME280;70887;52.332;5.532;2023-07-02T00:01:02;100744.13;;;16.66;72.50
81468;BME280;70887;52.332;5.532;2023-07-02T00:03:29;100740.81;;;16.69;70.76
81468;BME280;70887;52.332;5.532;2023-07-02T00:05:54;100741.09;;;16.67;70.87
81468;BME280;70887;52.332;5.532;2023-07-02T00:08:22;100741.13;;;16.62;69.71
81468;BME280;70887;52.332;5.532;2023-07-02T00:10:47;100746.09;;;16.60;69.85
81468;BME280;70887;52.332;5.532;2023-07-02T00:13:14;100749.69;;;16.60;68.68
81468;BME280;70887;52.332;5.532;2023-07-02T00:15:39;100748.28;;;16.58;67.69
81468;BME280;70887;52.332;5.532;2023-07-02T00:18:04;100741.13;;;16.57;68.65
81468;BME280;70887;52.332;5.532;2023-07-02T00:20:30;100741.97;;;16.57;68.40
81468;BME280;70887;52.332;5.532;2023-07-02T00:23:00;100739.47;;;16.56;67.64
81468;BME280;70887;52.332;5.532;2023-07-02T00:25:25;100735.88;;;16.60;65.49
81468;BME280;70887;52.332;5.532;2023-07-02T00:27:51;100740.88;;;16.53;65.33
81468;BME280;70887;52.332;5.532;2023-07-02T00:30:16;100735.06;;;16.49;64.30
81468;BME280;70887;52.332;5.532;2023-07-02T00:32:41;100737.84;;;16.39;62.44
81468;BME280;70887;52.332;5.532;2023-07-02T00:35:07;100743.94;;;16.31;62.34
81468;BME280;70887;52.332;5.532;2023-07-02T00:37:32;100740.66;;;16.29;62.20
81468;BME280;70887;52.332;5.532;2023-07-02T00:39:57;100747.28;;;16.22;62.06
81468;BME280;70887;52.332;5.532;2023-07-02T00:42:23;100744.81;;;16.21;62.06
81468;BME280;70887;52.332;5.532;2023-07-02T00:44:48;100746.47;;;16.17;61.88
81468;BME280;70887;52.332;5.532;2023-07-02T00:47:14;100762.47;;;16.15;61.20
81468;BME280;70887;52.332;5.532;2023-07-02T00:49:40;100745.09;;;16.14;60.84
81468;BME280;70887;52.332;5.532;2023-07-02T00:52:05;100745.66;;;16.11;61.16
81468;BME280;70887;52.332;5.532;2023-07-02T00:54:31;100753.66;;;16.07;60.80
81468;BME280;70887;52.332;5.532;2023-07-02T00:56:57;100752.84;;;16.02;61.28
81468;BME280;70887;52.332;5.532;2023-07-02T00:59:28;100748.44;;;15.95;62.41
81468;BME280;70887;52.332;5.532;2023-07-02T01:01:55;100762.50;;;15.94;61.62
81468;BME280;70887;52.332;5.532;2023-07-02T01:04:22;100758.34;;;15.91;61.10
81468;BME280;70887;52.332;5.532;2023-07-02T01:06:52;100765.50;;;15.87;62.16
81468;BME280;70887;52.332;5.532;2023-07-02T01:09:22;100759.72;;;15.78;61.82
81468;BME280;70887;52.332;5.532;2023-07-02T01:11:53;100752.53;;;15.72;61.87
81468;BME280;70887;52.332;5.532;2023-07-02T01:14:27;100765.53;;;15.66;61.98
81468;BME280;70887;52.332;5.532;2023-07-02T01:16:54;100764.69;;;15.61;62.66
81468;BME280;70887;52.332;5.532;2023-07-02T01:19:41;100762.47;;;15.52;62.62
81468;BME280;70887;52.332;5.532;2023-07-02T01:22:07;100764.41;;;15.46;63.18
81468;BME280;70887;52.332;5.532;2023-07-02T01:24:33;100760.50;;;15.37;63.38
81468;BME280;70887;52.332;5.532;2023-07-02T01:26:59;100760.50;;;15.37;63.63
81468;BME280;70887;52.332;5.532;2023-07-02T01:29:29;100759.41;;;15.33;63.07
81468;BME280;70887;52.332;5.532;2023-07-02T01:31:55;100758.28;;;15.29;62.88
81468;BME280;70887;52.332;5.532;2023-07-02T01:34:20;100755.53;;;15.29;63.19
81468;BME280;70887;52.332;5.532;2023-07-02T01:36:46;100762.69;;;15.25;63.71
81468;BME280;70887;52.332;5.532;2023-07-02T01:39:11;100760.22;;;15.23;63.26
81468;BME280;70887;52.332;5.532;2023-07-02T01:41:42;100762.66;;;15.19;63.33
81468;BME280;70887;52.332;5.532;2023-07-02T01:44:07;100760.47;;;15.21;63.36
81468;BME280;70887;52.332;5.532;2023-07-02T01:46:33;100761.56;;;15.15;63.33
81468;BME280;70887;52.332;5.532;2023-07-02T01:48:58;100769.28;;;15.13;63.78
81468;BME280;70887;52.332;5.532;2023-07-02T01:51:23;100770.63;;;15.05;63.62
81468;BME280;70887;52.332;5.532;2023-07-02T01:53:49;100778.06;;;15.00;64.88
81468;BME280;70887;52.332;5.532;2023-07-02T01:56:14;100778.31;;;14.98;64.53
81468;BME280;70887;52.332;5.532;2023-07-02T01:58:39;100773.06;;;14.91;64.17
81468;BME280;70887;52.332;5.532;2023-07-02T02:01:05;100774.13;;;14.85;64.86
81468;BME280;70887;52.332;5.532;2023-07-02T02:03:30;100768.03;;;14.78;64.73
81468;BME280;70887;52.332;5.532;2023-07-02T02:05:55;100767.94;;;14.67;65.06
81468;BME280;70887;52.332;5.532;2023-07-02T02:08:21;100766.88;;;14.68;64.72
81468;BME280;70887;52.332;5.532;2023-07-02T02:10:46;100760.81;;;14.72;64.82
81468;BME280;70887;52.332;5.532;2023-07-02T02:13:11;100772.13;;;14.70;65.23
81468;BME280;70887;52.332;5.532;2023-07-02T02:15:37;100770.72;;;14.67;65.19
81468;BME280;70887;52.332;5.532;2023-07-02T02:18:02;100774.56;;;14.66;66.83
81468;BME280;70887;52.332;5.532;2023-07-02T02:20:27;100788.00;;;14.52;66.03
81468;BME280;70887;52.332;5.532;2023-07-02T02:22:53;100785.59;;;14.61;66.73
81468;BME280;70887;52.332;5.532;2023-07-02T02:25:18;100780.94;;;14.67;68.82
81468;BME280;70887;52.332;5.532;2023-07-02T02:27:43;100782.25;;;14.64;66.52
81468;BME280;70887;52.332;5.532;2023-07-02T02:30:09;100783.91;;;14.60;66.35
81468;BME280;70887;52.332;5.532;2023-07-02T02:32:34;100785.31;;;14.63;66.90
81468;BME280;70887;52.332;5.532;2023-07-02T02:35:00;100788.78;;;14.48;66.71
81468;BME280;70887;52.332;5.532;2023-07-02T02:37:25;100793.78;;;14.51;67.12
81468;BME280;70887;52.332;5.532;2023-07-02T02:39:50;100770.22;;;14.32;67.62
81468;BME280;70887;52.332;5.532;2023-07-02T02:42:16;100793.72;;;14.45;68.48
81468;BME280;70887;52.332;5.532;2023-07-02T02:44:41;100788.19;;;14.35;69.08
81468;BME280;70887;52.332;5.532;2023-07-02T02:47:06;100796.28;;;14.52;69.93
81468;BME280;70887;52.332;5.532;2023-07-02T02:49:32;100796.88;;;14.16;69.13
81468;BME280;70887;52.332;5.532;2023-07-02T02:51:57;100807.44;;;13.97;70.14
81468;BME280;70887;52.332;5.532;2023-07-02T02:54:22;100806.78;;;13.85;70.62
81468;BME280;70887;52.332;5.532;2023-07-02T02:56:48;100801.44;;;13.73;71.53
81468;BME280;70887;52.332;5.532;2023-07-02T02:59:13;100794.19;;;13.61;71.95
81468;BME280;70887;52.332;5.532;2023-07-02T03:01:38;100794.97;;;13.57;73.11
81468;BME280;70887;52.332;5.532;2023-07-02T03:04:04;100802.25;;;13.46;72.75
81468;BME280;70887;52.332;5.532;2023-07-02T03:06:33;100797.94;;;13.50;72.70
81468;BME280;70887;52.332;5.532;2023-07-02T03:08:58;100795.19;;;13.50;73.26
81468;BME280;70887;52.332;5.532;2023-07-02T03:11:24;100799.44;;;13.63;72.55
81468;BME280;70887;52.332;5.532;2023-07-02T03:13:49;100802.47;;;13.66;72.16
81468;BME280;70887;52.332;5.532;2023-07-02T03:16:14;100819.00;;;13.66;72.44
81468;BME280;70887;52.332;5.532;2023-07-02T03:18:40;100826.25;;;13.78;72.08
81468;BME280;70887;52.332;5.532;2023-07-02T03:21:05;100825.22;;;13.84;71.37
81468;BME280;70887;52.332;5.532;2023-07-02T03:23:31;100825.84;;;13.91;71.06
81468;BME280;70887;52.332;5.532;2023-07-02T03:25:56;100826.59;;;13.82;71.31
81468;BME280;70887;52.332;5.532;2023-07-02T03:28:21;100827.34;;;13.77;71.32
81468;BME280;70887;52.332;5.532;2023-07-02T03:30:47;100827.25;;;13.66;71.70
81468;BME280;70887;52.332;5.532;2023-07-02T03:33:12;100829.38;;;13.59;72.42
81468;BME280;70887;52.332;5.532;2023-07-02T03:35:37;100821.25;;;13.47;72.45
81468;BME280;70887;52.332;5.532;2023-07-02T03:38:04;100824.44;;;13.39;72.99
81468;BME280;70887;52.332;5.532;2023-07-02T03:40:31;100823.56;;;13.33;73.47
81468;BME280;70887;52.332;5.532;2023-07-02T03:42:56;100822.41;;;13.29;73.54
81468;BME280;70887;52.332;5.532;2023-07-02T03:45:21;100824.88;;;13.25;74.36
81468;BME280;70887;52.332;5.532;2023-07-02T03:47:47;100832.88;;;13.27;73.47
81468;BME280;70887;52.332;5.532;2023-07-02T03:50:12;100824.91;;;13.30;73.11
81468;BME280;70887;52.332;5.532;2023-07-02T03:52:37;100830.09;;;13.49;72.46
81468;BME280;70887;52.332;5.532;2023-07-02T03:55:03;100829.25;;;13.49;73.13
81468;BME280;70887;52.332;5.532;2023-07-02T03:57:29;100834.38;;;13.62;72.35
81468;BME280;70887;52.332;5.532;2023-07-02T03:59:55;100831.88;;;13.61;71.74
81468;BME280;70887;52.332;5.532;2023-07-02T04:02:20;100837.44;;;13.43;72.51
81468;BME280;70887;52.332;5.532;2023-07-02T04:04:46;100844.69;;;13.50;72.68
81468;BME280;70887;52.332;5.532;2023-07-02T04:07:11;100847.88;;;13.41;72.53
81468;BME280;70887;52.332;5.532;2023-07-02T04:09:36;100846.78;;;13.42;72.46
81468;BME280;70887;52.332;5.532;2023-07-02T04:12:02;100847.44;;;13.50;72.43
81468;BME280;70887;52.332;5.532;2023-07-02T04:14:27;100847.81;;;13.36;72.96
81468;BME280;70887;52.332;5.532;2023-07-02T04:16:53;100855.28;;;13.41;72.58
81468;BME280;70887;52.332;5.532;2023-07-02T04:19:18;100843.84;;;13.49;72.63
81468;BME280;70887;52.332;5.532;2023-07-02T04:21:43;100846.78;;;13.65;71.96
81468;BME280;70887;52.332;5.532;2023-07-02T04:24:09;100850.38;;;13.65;71.69
81468;BME280;70887;52.332;5.532;2023-07-02T04:26:34;100851.53;;;13.75;71.56
81468;BME280;70887;52.332;5.532;2023-07-02T04:28:59;100859.88;;;13.80;71.80
81468;BME280;70887;52.332;5.532;2023-07-02T04:31:25;100861.00;;;13.84;71.67
81468;BME280;70887;52.332;5.532;2023-07-02T04:33:51;100858.09;;;13.96;71.11
81468;BME280;70887;52.332;5.532;2023-07-02T04:36:16;100864.59;;;14.50;69.60
81468;BME280;70887;52.332;5.532;2023-07-02T04:38:41;100854.59;;;15.36;66.49
81468;BME280;70887;52.332;5.532;2023-07-02T04:41:07;100858.56;;;15.81;64.16
81468;BME280;70887;52.332;5.532;2023-07-02T04:43:35;100866.63;;;16.56;63.00
81468;BME280;70887;52.332;5.532;2023-07-02T04:46:01;100863.50;;;16.99;60.27
81468;BME280;70887;52.332;5.532;2023-07-02T04:48:27;100867.19;;;17.50;59.20
81468;BME280;70887;52.332;5.532;2023-07-02T04:50:52;100874.28;;;16.95;59.92
81468;BME280;70887;52.332;5.532;2023-07-02T04:53:17;100863.34;;;17.41;58.76
81468;BME280;70887;52.332;5.532;2023-07-02T04:55:43;100863.06;;;17.42;58.72
81468;BME280;70887;52.332;5.532;2023-07-02T04:58:09;100878.16;;;18.11;57.41
81468;BME280;70887;52.332;5.532;2023-07-02T05:00:34;100875.63;;;18.20;56.41
81468;BME280;70887;52.332;5.532;2023-07-02T05:02:59;100876.09;;;18.32;55.96
81468;BME280;70887;52.332;5.532;2023-07-02T05:05:25;100881.81;;;18.71;54.96
81468;BME280;70887;52.332;5.532;2023-07-02T05:07:50;100878.03;;;19.15;53.87
81468;BME280;70887;52.332;5.532;2023-07-02T05:10:15;100872.06;;;19.27;53.54
81468;BME280;70887;52.332;5.532;2023-07-02T05:12:41;100869.25;;;19.52;52.61
81468;BME280;70887;52.332;5.532;2023-07-02T05:15:06;100874.13;;;19.16;53.55
81468;BME280;70887;52.332;5.532;2023-07-02T05:17:32;100872.06;;;19.27;53.58
81468;BME280;70887;52.332;5.532;2023-07-02T05:20:00;100868.41;;;19.51;52.57
81468;BME280;70887;52.332;5.532;2023-07-02T05:22:26;100874.22;;;19.55;52.93
81468;BME280;70887;52.332;5.532;2023-07-02T05:24:51;100872.34;;;20.08;51.21
81468;BME280;70887;52.332;5.532;2023-07-02T05:27:16;100876.44;;;20.30;50.77
81468;BME280;70887;52.332;5.532;2023-07-02T05:29:43;100879.97;;;19.97;51.38
81468;BME280;70887;52.332;5.532;2023-07-02T05:32:08;100884.19;;;19.56;52.78
81468;BME280;70887;52.332;5.532;2023-07-02T05:34:33;100886.63;;;19.19;53.75
81468;BME280;70887;52.332;5.532;2023-07-02T05:36:59;100884.44;;;19.16;53.79
81468;BME280;70887;52.332;5.532;2023-07-02T05:39:24;100881.41;;;19.12;54.11
81468;BME280;70887;52.332;5.532;2023-07-02T05:41:49;100887.75;;;18.88;54.78
81468;BME280;70887;52.332;5.532;2023-07-02T05:44:15;100893.56;;;18.62;56.33
81468;BME280;70887;52.332;5.532;2023-07-02T05:46:40;100897.53;;;19.05;55.29
81468;BME280;70887;52.332;5.532;2023-07-02T05:49:05;100896.50;;;19.25;54.70
81468;BME280;70887;52.332;5.532;2023-07-02T05:51:31;100904.44;;;18.83;55.62
81468;BME280;70887;52.332;5.532;2023-07-02T05:53:56;100896.97;;;18.54;56.62
81468;BME280;70887;52.332;5.532;2023-07-02T05:56:22;100899.72;;;19.38;54.52
81468;BME280;70887;52.332;5.532;2023-07-02T05:58:48;100901.06;;;18.86;55.01
81468;BME280;70887;52.332;5.532;2023-07-02T06:01:14;100908.19;;;19.22;54.46
81468;BME280;70887;52.332;5.532;2023-07-02T06:03:40;100918.97;;;19.29;54.62
81468;BME280;70887;52.332;5.532;2023-07-02T06:06:05;100910.34;;;19.31;54.48
81468;BME280;70887;52.332;5.532;2023-07-02T06:08:31;100919.19;;;19.08;54.92
81468;BME280;70887;52.332;5.532;2023-07-02T06:10:56;100919.16;;;18.84;55.57
81468;BME280;70887;52.332;5.532;2023-07-02T06:13:21;100913.09;;;18.07;56.57
81468;BME280;70887;52.332;5.532;2023-07-02T06:15:47;100920.81;;;17.70;57.92
81468;BME280;70887;52.332;5.532;2023-07-02T06:18:13;100919.34;;;17.83;57.81
81468;BME280;70887;52.332;5.532;2023-07-02T06:20:38;100928.53;;;18.23;55.57
81468;BME280;70887;52.332;5.532;2023-07-02T06:23:04;100934.84;;;17.89;56.63
81468;BME280;70887;52.332;5.532;2023-07-02T06:25:29;100935.03;;;18.03;56.32
81468;BME280;70887;52.332;5.532;2023-07-02T06:27:54;100936.38;;;18.11;55.48
81468;BME280;70887;52.332;5.532;2023-07-02T06:30:26;100920.97;;;19.23;52.55
81468;BME280;70887;52.332;5.532;2023-07-02T06:32:51;100920.78;;;19.83;50.33
81468;BME280;70887;52.332;5.532;2023-07-02T06:35:17;100918.75;;;20.27;49.20
81468;BME280;70887;52.332;5.532;2023-07-02T06:37:43;100923.75;;;20.44;48.83
81468;BME280;70887;52.332;5.532;2023-07-02T06:40:09;100920.63;;;20.98;47.60
81468;BME280;70887;52.332;5.532;2023-07-02T06:42:34;100930.28;;;20.20;48.68
81468;BME280;70887;52.332;5.532;2023-07-02T06:45:01;100924.28;;;20.46;47.80
81468;BME280;70887;52.332;5.532;2023-07-02T06:47:27;100939.53;;;20.49;47.82
81468;BME280;70887;52.332;5.532;2023-07-02T06:49:52;100934.47;;;20.84;46.83
81468;BME280;70887;52.332;5.532;2023-07-02T06:52:18;100947.63;;;20.98;45.68
81468;BME280;70887;52.332;5.532;2023-07-02T06:54:43;100933.22;;;21.10;44.68
81468;BME280;70887;52.332;5.532;2023-07-02T06:57:09;100948.47;;;21.40;44.35
81468;BME280;70887;52.332;5.532;2023-07-02T06:59:34;100953.22;;;21.40;44.28
81468;BME280;70887;52.332;5.532;2023-07-02T07:01:59;100962.69;;;21.39;44.81
81468;BME280;70887;52.332;5.532;2023-07-02T07:04:24;100960.53;;;21.64;43.89
81468;BME280;70887;52.332;5.532;2023-07-02T07:06:50;100963.75;;;21.43;44.25
81468;BME280;70887;52.332;5.532;2023-07-02T07:09:15;100961.44;;;21.59;43.68
81468;BME280;70887;52.332;5.532;2023-07-02T07:11:42;100971.75;;;22.01;43.63
81468;BME280;70887;52.332;5.532;2023-07-02T07:14:08;100970.94;;;22.23;42.25
81468;BME280;70887;52.332;5.532;2023-07-02T07:16:33;100974.69;;;21.81;43.10
81468;BME280;70887;52.332;5.532;2023-07-02T07:18:58;100983.97;;;21.63;42.86
81468;BME280;70887;52.332;5.532;2023-07-02T07:21:24;100976.00;;;21.84;42.43
81468;BME280;70887;52.332;5.532;2023-07-02T07:23:49;100996.13;;;21.95;42.60
81468;BME280;70887;52.332;5.532;2023-07-02T07:26:14;100989.63;;;21.15;42.67
81468;BME280;70887;52.332;5.532;2023-07-02T07:28:40;100985.50;;;21.69;42.47
81468;BME280;70887;52.332;5.532;2023-07-02T07:31:05;100988.72;;;22.50;41.43
81468;BME280;70887;52.332;5.532;2023-07-02T07:33:30;100995.06;;;23.10;39.80
81468;BME280;70887;52.332;5.532;2023-07-02T07:35:56;100992.84;;;22.98;39.50
81468;BME280;70887;52.332;5.532;2023-07-02T07:38:21;100998.13;;;23.00;39.68
81468;BME280;70887;52.332;5.532;2023-07-02T07:40:47;101000.50;;;23.47;39.31
81468;BME280;70887;52.332;5.532;2023-07-02T07:43:12;100998.91;;;23.23;40.35
81468;BME280;70887;52.332;5.532;2023-07-02T07:45:38;100991.84;;;21.75;43.31
81468;BME280;70887;52.332;5.532;2023-07-02T07:48:04;101005.66;;;21.80;43.66
81468;BME280;70887;52.332;5.532;2023-07-02T07:50:30;101005.84;;;21.41;44.52
81468;BME280;70887;52.332;5.532;2023-07-02T07:52:55;101001.19;;;21.51;43.98
81468;BME280;70887;52.332;5.532;2023-07-02T07:55:21;101003.97;;;21.51;43.30
81468;BME280;70887;52.332;5.532;2023-07-02T07:57:46;101002.75;;;21.99;42.49
81468;BME280;70887;52.332;5.532;2023-07-02T08:00:12;100999.31;;;22.39;41.36
81468;BME280;70887;52.332;5.532;2023-07-02T08:02:38;101001.69;;;21.25;42.55
81468;BME280;70887;52.332;5.532;2023-07-02T08:05:04;101000.69;;;20.68;44.24
81468;BME280;70887;52.332;5.532;2023-07-02T08:07:32;101017.56;;;19.75;44.39
81468;BME280;70887;52.332;5.532;2023-07-02T08:09:58;101016.63;;;19.85;45.03
81468;BME280;70887;52.332;5.532;2023-07-02T08:12:23;101011.31;;;20.66;43.80
81468;BME280;70887;52.332;5.532;2023-07-02T08:14:49;101002.50;;;21.11;43.45
81468;BME280;70887;52.332;5.532;2023-07-02T08:17:14;101026.13;;;21.14;43.11
81468;BME280;70887;52.332;5.532;2023-07-02T08:19:40;101019.44;;;21.71;41.07
81468;BME280;70887;52.332;5.532;2023-07-02T08:22:05;101023.09;;;22.37;40.04
81468;BME280;70887;52.332;5.532;2023-07-02T08:24:31;101019.56;;;22.91;39.39
81468;BME280;70887;52.332;5.532;2023-07-02T08:26:57;101013.63;;;23.15;37.69
81468;BME280;70887;52.332;5.532;2023-07-02T08:29:23;101028.19;;;22.80;39.23
81468;BME280;70887;52.332;5.532;2023-07-02T08:31:48;101020.78;;;22.39;38.90
81468;BME280;70887;52.332;5.532;2023-07-02T08:34:13;101021.88;;;22.29;40.01
81468;BME280;70887;52.332;5.532;2023-07-02T08:36:39;101028.22;;;23.03;38.41
81468;BME280;70887;52.332;5.532;2023-07-02T08:39:04;101019.22;;;23.15;37.64
81468;BME280;70887;52.332;5.532;2023-07-02T08:41:30;101026.56;;;22.56;39.02
81468;BME280;70887;52.332;5.532;2023-07-02T08:43:59;101037.00;;;22.96;39.00
81468;BME280;70887;52.332;5.532;2023-07-02T08:46:25;101038.84;;;23.01;37.74
81468;BME280;70887;52.332;5.532;2023-07-02T08:48:50;101018.13;;;22.33;37.26
81468;BME280;70887;52.332;5.532;2023-07-02T08:51:16;101038.84;;;21.62;39.70
81468;BME280;70887;52.332;5.532;2023-07-02T08:53:41;101045.69;;;21.56;41.03
81468;BME280;70887;52.332;5.532;2023-07-02T08:56:06;101040.03;;;21.75;40.58
81468;BME280;70887;52.332;5.532;2023-07-02T08:58:32;101040.38;;;21.26;40.54
81468;BME280;70887;52.332;5.532;2023-07-02T09:01:08;101055.53;;;20.48;42.04
81468;BME280;70887;52.332;5.532;2023-07-02T09:03:34;101046.72;;;20.02;43.85
81468;BME280;70887;52.332;5.532;2023-07-02T09:06:02;101048.16;;;20.00;44.62
81468;BME280;70887;52.332;5.532;2023-07-02T09:08:28;101056.09;;;20.07;45.37
81468;BME280;70887;52.332;5.532;2023-07-02T09:10:54;101058.00;;;19.87;44.92
81468;BME280;70887;52.332;5.532;2023-07-02T09:13:19;101060.00;;;19.81;44.35
81468;BME280;70887;52.332;5.532;2023-07-02T09:15:45;101054.47;;;20.05;43.68
81468;BME280;70887;52.332;5.532;2023-07-02T09:18:23;101057.56;;;19.74;44.90
81468;BME280;70887;52.332;5.532;2023-07-02T09:20:51;101061.94;;;19.56;45.75
81468;BME280;70887;52.332;5.532;2023-07-02T09:23:17;101057.72;;;19.64;46.37
81468;BME280;70887;52.332;5.532;2023-07-02T09:25:42;101057.09;;;20.35;45.04
81468;BME280;70887;52.332;5.532;2023-07-02T09:30:57;101047.56;;;21.13;42.80
81468;BME280;70887;52.332;5.532;2023-07-02T09:33:27;101057.94;;;20.93;43.21
81468;BME280;70887;52.332;5.532;2023-07-02T09:35:53;101056.31;;;20.87;43.31
81468;BME280;70887;52.332;5.532;2023-07-02T09:38:21;101051.56;;;21.96;41.29
81468;BME280;70887;52.332;5.532;2023-07-02T09:40:51;101058.66;;;22.17;41.55
81468;BME280;70887;52.332;5.532;2023-07-02T09:43:17;101057.06;;;21.88;41.25
81468;BME280;70887;52.332;5.532;2023-07-02T09:45:47;101056.88;;;21.23;42.30
81468;BME280;70887;52.332;5.532;2023-07-02T09:48:14;101059.94;;;22.11;41.23
81468;BME280;70887;52.332;5.532;2023-07-02T09:50:42;101052.81;;;22.41;40.59
81468;BME280;70887;52.332;5.532;2023-07-02T09:53:08;101054.69;;;22.83;40.13
81468;BME280;70887;52.332;5.532;2023-07-02T09:55:34;101062.47;;;22.72;38.62
81468;BME280;70887;52.332;5.532;2023-07-02T09:57:59;101059.41;;;23.05;37.01
81468;BME280;70887;52.332;5.532;2023-07-02T10:00:25;101048.25;;;23.05;36.89
81468;BME280;70887;52.332;5.532;2023-07-02T10:02:50;101059.50;;;22.68;37.76
81468;BME280;70887;52.332;5.532;2023-07-02T10:05:45;101064.47;;;22.57;38.71
81468;BME280;70887;52.332;5.532;2023-07-02T10:08:14;101070.97;;;22.67;39.14
81468;BME280;70887;52.332;5.532;2023-07-02T10:10:42;101063.72;;;22.29;38.79
81468;BME280;70887;52.332;5.532;2023-07-02T10:13:07;101061.28;;;22.50;38.47
81468;BME280;70887;52.332;5.532;2023-07-02T10:15:33;101066.53;;;22.66;42.27
81468;BME280;70887;52.332;5.532;2023-07-02T10:18:03;101073.56;;;22.12;37.77
81468;BME280;70887;52.332;5.532;2023-07-02T10:20:38;101076.94;;;21.53;38.44
81468;BME280;70887;52.332;5.532;2023-07-02T10:23:05;101074.59;;;22.02;37.64
81468;BME280;70887;52.332;5.532;2023-07-02T10:25:33;101080.84;;;22.73;36.11
81468;BME280;70887;52.332;5.532;2023-07-02T10:28:00;101087.16;;;23.02;34.48
81468;BME280;70887;52.332;5.532;2023-07-02T10:30:34;101074.59;;;22.16;36.65
81468;BME280;70887;52.332;5.532;2023-07-02T10:33:10;101081.25;;;22.43;36.56
81468;BME280;70887;52.332;5.532;2023-07-02T10:35:36;101079.00;;;22.31;37.19
81468;BME280;70887;52.332;5.532;2023-07-02T10:38:01;101081.69;;;21.66;37.49
81468;BME280;70887;52.332;5.532;2023-07-02T10:40:27;101084.47;;;22.22;37.37
81468;BME280;70887;52.332;5.532;2023-07-02T10:42:53;101100.53;;;21.89;38.48
81468;BME280;70887;52.332;5.532;2023-07-02T10:45:19;101100.09;;;20.81;39.91
81468;BME280;70887;52.332;5.532;2023-07-02T10:47:45;101107.97;;;21.46;39.04
81468;BME280;70887;52.332;5.532;2023-07-02T10:52:39;101103.19;;;21.80;38.38
81468;BME280;70887;52.332;5.532;2023-07-02T10:55:05;101106.28;;;21.92;36.33
81468;BME280;70887;52.332;5.532;2023-07-02T10:57:31;101107.13;;;21.31;36.45
81468;BME280;70887;52.332;5.532;2023-07-02T11:00:07;101110.28;;;21.58;37.33
81468;BME280;70887;52.332;5.532;2023-07-02T11:02:34;101110.75;;;22.07;36.90
81468;BME280;70887;52.332;5.532;2023-07-02T11:05:00;101100.00;;;21.25;38.25
81468;BME280;70887;52.332;5.532;2023-07-02T11:07:25;101109.06;;;21.17;37.87
81468;BME280;70887;52.332;5.532;2023-07-02T11:09:51;101116.97;;;21.43;37.34
81468;BME280;70887;52.332;5.532;2023-07-02T11:12:16;101105.91;;;21.04;37.37
81468;BME280;70887;52.332;5.532;2023-07-02T11:14:42;101112.22;;;20.72;38.51
81468;BME280;70887;52.332;5.532;2023-07-02T11:17:07;101112.91;;;20.63;39.02
81468;BME280;70887;52.332;5.532;2023-07-02T11:19:33;101108.59;;;20.71;38.67
81468;BME280;70887;52.332;5.532;2023-07-02T11:21:59;101119.47;;;20.53;38.57
81468;BME280;70887;52.332;5.532;2023-07-02T11:24:35;101109.81;;;20.46;37.73
81468;BME280;70887;52.332;5.532;2023-07-02T11:27:02;101120.56;;;20.52;37.89
81468;BME280;70887;52.332;5.532;2023-07-02T11:29:29;101121.25;;;20.63;37.89
81468;BME280;70887;52.332;5.532;2023-07-02T11:32:04;101109.22;;;20.49;37.95
81468;BME280;70887;52.332;5.532;2023-07-02T11:34:30;101118.44;;;21.21;37.06
81468;BME280;70887;52.332;5.532;2023-07-02T11:36:55;101113.53;;;21.46;36.55
81468;BME280;70887;52.332;5.532;2023-07-02T11:39:20;101114.97;;;21.29;37.49
81468;BME280;70887;52.332;5.532;2023-07-02T11:41:47;101123.91;;;20.93;37.26
81468;BME280;70887;52.332;5.532;2023-07-02T11:44:13;101132.38;;;20.82;36.88
81468;BME280;70887;52.332;5.532;2023-07-02T11:46:39;101124.97;;;21.30;36.31
81468;BME280;70887;52.332;5.532;2023-07-02T11:49:04;101119.13;;;21.13;36.22
81468;BME280;70887;52.332;5.532;2023-07-02T11:51:33;101133.44;;;21.39;36.59
81468;BME280;70887;52.332;5.532;2023-07-02T11:53:58;101124.59;;;21.84;34.41
81468;BME280;70887;52.332;5.532;2023-07-02T11:56:23;101115.38;;;22.26;33.50
81468;BME280;70887;52.332;5.532;2023-07-02T11:58:49;101126.06;;;21.49;35.55
81468;BME280;70887;52.332;5.532;2023-07-02T12:01:14;101122.97;;;22.48;33.87
81468;BME280;70887;52.332;5.532;2023-07-02T12:03:39;101129.72;;;22.33;32.63
81468;BME280;70887;52.332;5.532;2023-07-02T12:06:05;101133.34;;;22.20;32.12
81468;BME280;70887;52.332;5.532;2023-07-02T12:08:30;101134.81;;;22.03;33.51
81468;BME280;70887;52.332;5.532;2023-07-02T12:10:56;101138.78;;;21.69;34.58
81468;BME280;70887;52.332;5.532;2023-07-02T12:13:21;101130.06;;;21.42;34.48
81468;BME280;70887;52.332;5.532;2023-07-02T12:15:47;101147.44;;;21.01;36.39
81468;BME280;70887;52.332;5.532;2023-07-02T12:18:12;101141.59;;;21.02;36.08
81468;BME280;70887;52.332;5.532;2023-07-02T12:20:40;101146.47;;;20.72;36.17
81468;BME280;70887;52.332;5.532;2023-07-02T12:23:05;101135.59;;;20.51;35.80
81468;BME280;70887;52.332;5.532;2023-07-02T12:25:30;101143.06;;;21.14;35.38
81468;BME280;70887;52.332;5.532;2023-07-02T12:27:56;101142.22;;;21.32;36.11
81468;BME280;70887;52.332;5.532;2023-07-02T12:30:21;101156.41;;;21.17;35.63
81468;BME280;70887;52.332;5.532;2023-07-02T12:32:46;101149.94;;;21.02;36.18
81468;BME280;70887;52.332;5.532;2023-07-02T12:35:12;101147.50;;;21.15;39.71
81468;BME280;70887;52.332;5.532;2023-07-02T12:37:48;101151.19;;;21.10;35.00
81468;BME280;70887;52.332;5.532;2023-07-02T12:40:14;101141.19;;;21.42;34.97
81468;BME280;70887;52.332;5.532;2023-07-02T12:42:42;101146.94;;;21.32;35.12
81468;BME280;70887;52.332;5.532;2023-07-02T12:45:08;101156.19;;;21.61;34.64
81468;BME280;70887;52.332;5.532;2023-07-02T12:47:33;101160.66;;;21.62;34.17
81468;BME280;70887;52.332;5.532;2023-07-02T12:49:59;101157.63;;;21.77;34.29